createdAt,value
2023-11-30T00:00:17.295Z,70.895714
2023-11-30T00:05:16.338Z,71.585106
2023-11-30T00:10:17.214Z,71.590647
2023-11-30T00:15:16.005Z,71.390714
2023-11-30T00:20:16.110Z,71.836879
2023-11-30T00:25:15.964Z,71.914388
2023-11-30T00:30:15.823Z,72.482979
2023-11-30T00:35:16.090Z,72.298592
2023-11-30T00:40:15.867Z,72.121168
2023-11-30T00:45:16.266Z,73.102143
2023-11-30T00:50:16.510Z,72.950355
2023-11-30T00:55:15.847Z,72.990714
2023-11-30T01:00:16.751Z,73.588571
2023-11-30T01:05:16.750Z,73.332624
2023-11-30T01:10:16.117Z,73.678169
2023-11-30T01:15:16.978Z,73.392908
2023-11-30T01:20:16.288Z,72.785106
2023-11-30T01:25:16.703Z,73.101418
2023-11-30T01:30:16.290Z,72.937589
2023-11-30T01:35:16.736Z,72.705634
2023-11-30T01:40:16.644Z,72.744366
2023-11-30T01:45:16.752Z,72.638732
2023-11-30T01:50:15.833Z,72.471329
2023-11-30T01:55:16.123Z,72.519149
2023-11-30T02:00:16.422Z,72.652482
2023-11-30T02:05:16.228Z,72.323239
2023-11-30T02:10:17.104Z,72.328873
2023-11-30T02:15:16.536Z,72.356338
2023-11-30T02:20:16.442Z,72.965957
2023-11-30T02:25:15.909Z,73.247887
2023-11-30T02:30:16.472Z,71.977465
2023-11-30T02:35:16.357Z,71.578169
2023-11-30T02:40:16.482Z,72.413475
2023-11-30T02:45:32.316Z,72.126573
2023-11-30T02:50:15.880Z,72.256643
2023-11-30T02:55:16.452Z,72.465000
2023-11-30T03:00:16.752Z,73.413669
2023-11-30T03:05:15.956Z,73.911189
2023-11-30T03:10:16.047Z,73.152448
2023-11-30T03:15:17.106Z,72.745139
2023-11-30T03:20:16.436Z,72.892908
2023-11-30T03:25:16.089Z,73.784058
2023-11-30T03:30:16.216Z,75.814706
2023-11-30T03:35:16.840Z,77.440441
2023-11-30T03:40:15.947Z,78.014599
2023-11-30T03:45:18.579Z,78.111679
2023-11-30T03:50:16.231Z,78.643066
2023-11-30T03:55:17.983Z,78.561481
2023-11-30T04:00:16.117Z,78.829412
2023-11-30T04:05:17.749Z,78.799270
2023-11-30T04:10:15.920Z,78.527007
2023-11-30T04:15:16.110Z,78.821739
2023-11-30T04:20:17.356Z,79.107143
2023-11-30T04:25:15.793Z,77.939437
2023-11-30T04:30:16.007Z,77.655634
2023-11-30T04:35:17.116Z,77.348936
2023-11-30T04:40:16.222Z,77.205072
2023-11-30T04:45:16.042Z,78.328873
2023-11-30T04:50:16.170Z,78.491667
2023-11-30T04:55:15.995Z,77.531915
2023-11-30T05:00:15.773Z,77.375540
2023-11-30T05:05:16.244Z,77.851079
2023-11-30T05:10:16.589Z,79.013475
2023-11-30T05:15:15.892Z,78.509790
2023-11-30T05:20:15.745Z,77.546853
2023-11-30T05:25:15.944Z,77.469231
2023-11-30T05:30:16.500Z,76.937324
2023-11-30T05:35:16.552Z,76.272727
2023-11-30T05:40:16.214Z,76.193750
2023-11-30T05:45:15.897Z,76.504196
2023-11-30T05:50:16.054Z,76.414483
2023-11-30T05:55:16.534Z,76.716084
2023-11-30T06:00:16.871Z,77.031690
2023-11-30T06:05:17.097Z,77.144056
2023-11-30T06:10:15.999Z,76.953147
2023-11-30T06:15:17.451Z,76.380714
2023-11-30T06:20:16.142Z,77.398601
2023-11-30T06:25:16.252Z,77.843750
2023-11-30T06:30:15.986Z,77.355245
2023-11-30T06:35:16.896Z,76.954286
2023-11-30T06:40:16.341Z,76.857746
2023-11-30T06:45:16.698Z,76.787413
2023-11-30T06:50:16.367Z,77.347917
2023-11-30T06:55:16.571Z,76.915493
2023-11-30T07:00:16.889Z,76.752174
2023-11-30T07:05:15.874Z,77.392086
2023-11-30T07:10:16.131Z,77.499275
2023-11-30T07:15:16.631Z,78.050000
2023-11-30T07:20:17.384Z,78.422464
2023-11-30T07:25:16.369Z,78.916429
2023-11-30T07:30:16.053Z,79.035461
2023-11-30T07:35:16.209Z,78.002128
2023-11-30T07:40:16.594Z,77.963121
2023-11-30T07:45:17.424Z,77.966667
2023-11-30T07:50:16.003Z,77.970922
2023-11-30T07:55:16.242Z,79.039855
2023-11-30T08:00:17.195Z,80.758696
2023-11-30T08:05:15.837Z,80.683217
2023-11-30T08:10:16.727Z,79.646479
2023-11-30T08:15:16.042Z,78.748951
2023-11-30T08:20:16.347Z,78.558904
2023-11-30T08:25:16.125Z,78.519444
2023-11-30T08:30:16.602Z,78.839568
2023-11-30T08:35:16.027Z,80.483088
2023-11-30T08:40:18.355Z,81.688406
2023-11-30T08:45:18.065Z,80.887324
2023-11-30T08:50:16.517Z,79.748592
2023-11-30T08:55:16.618Z,79.321127
2023-11-30T09:00:20.401Z,78.830714
2023-11-30T09:05:16.664Z,79.067361
2023-11-30T09:10:16.090Z,78.332168
2023-11-30T09:15:16.445Z,78.224476
2023-11-30T09:20:16.021Z,78.445139
2023-11-30T09:25:15.974Z,77.922378
2023-11-30T09:30:16.143Z,77.480576
2023-11-30T09:35:16.277Z,78.651429
2023-11-30T09:40:15.967Z,79.246853
2023-11-30T09:45:16.336Z,79.034507
2023-11-30T09:50:15.944Z,78.729577
2023-11-30T09:55:16.258Z,79.357143
2023-11-30T10:00:18.065Z,79.485612
2023-11-30T10:05:17.756Z,79.392308
2023-11-30T10:10:15.864Z,79.375000
2023-11-30T10:15:16.059Z,79.648571
2023-11-30T10:20:17.196Z,79.693617
2023-11-30T10:25:15.932Z,79.782979
2023-11-30T10:30:17.919Z,79.767857
2023-11-30T10:35:16.067Z,79.690141
2023-11-30T10:40:19.159Z,79.278571
2023-11-30T10:45:17.500Z,79.881560
2023-11-30T10:50:16.345Z,80.295683
2023-11-30T10:55:15.725Z,80.592908
2023-11-30T11:00:16.490Z,80.081295
2023-11-30T11:05:15.742Z,80.465000
2023-11-30T11:10:19.789Z,80.247518
2023-11-30T11:15:18.143Z,80.375177
2023-11-30T11:20:18.009Z,80.450000
2023-11-30T11:25:16.724Z,80.615108
2023-11-30T11:30:15.923Z,80.484892
2023-11-30T11:35:15.777Z,80.240426
2023-11-30T11:40:17.030Z,79.939286
2023-11-30T11:45:16.983Z,80.261702
2023-11-30T11:50:16.701Z,79.888889
2023-11-30T11:55:16.643Z,79.361806
2023-11-30T12:00:15.981Z,80.508451
2023-11-30T12:05:15.940Z,81.236552
2023-11-30T12:10:15.744Z,81.053472
2023-11-30T12:15:16.704Z,80.193007
2023-11-30T12:20:16.143Z,79.611268
2023-11-30T12:25:16.363Z,80.039310
2023-11-30T12:30:16.066Z,79.253425
2023-11-30T12:35:18.102Z,78.973288
2023-11-30T12:40:17.099Z,79.102113
2023-11-30T12:45:15.919Z,79.783453
2023-11-30T12:50:16.157Z,79.826761
2023-11-30T12:55:18.705Z,79.660563
2023-11-30T13:00:16.827Z,79.308392
2023-11-30T13:05:15.873Z,78.933566
2023-11-30T13:10:16.261Z,78.991724
2023-11-30T13:15:17.422Z,78.625517
2023-11-30T13:20:16.051Z,78.177083
2023-11-30T13:25:16.542Z,78.063636
2023-11-30T13:30:16.595Z,78.311111
2023-11-30T13:35:16.473Z,78.607692
2023-11-30T13:40:16.547Z,78.984722
2023-11-30T13:45:16.760Z,79.354795
2023-11-30T13:50:26.041Z,79.449306
2023-11-30T13:55:16.592Z,79.178723
2023-11-30T14:00:15.875Z,79.389510
2023-11-30T14:05:16.157Z,79.542553
2023-11-30T14:10:15.919Z,80.289437
2023-11-30T14:15:15.892Z,79.913380
2023-11-30T14:20:15.961Z,79.723239
2023-11-30T14:25:16.846Z,80.190210
2023-11-30T14:30:17.396Z,80.677536
2023-11-30T14:35:17.347Z,81.041304
2023-11-30T14:40:17.495Z,81.170213
2023-11-30T14:45:15.939Z,80.335915
2023-11-30T14:50:18.024Z,80.230070
2023-11-30T14:55:18.827Z,80.034722
2023-11-30T15:00:17.801Z,79.327586
2023-11-30T15:05:20.320Z,78.805634
2023-11-30T15:10:17.584Z,79.824306
2023-11-30T15:15:16.946Z,79.234266
2023-11-30T15:20:20.114Z,79.574825
2023-11-30T15:25:17.561Z,80.710490
2023-11-30T15:30:17.611Z,80.349650
2023-11-30T15:35:17.986Z,80.306897
2023-11-30T15:40:16.824Z,80.539437
2023-11-30T15:45:15.978Z,80.233099
2023-11-30T15:50:16.230Z,79.926950
2023-11-30T15:55:16.217Z,80.075714
2023-11-30T16:00:15.870Z,80.143885
2023-11-30T16:05:17.311Z,79.556738
2023-11-30T16:10:16.776Z,79.778571
2023-11-30T16:15:15.762Z,80.453676
2023-11-30T16:20:16.780Z,81.554015
2023-11-30T16:25:17.332Z,81.731618
2023-11-30T16:30:18.678Z,81.860145
2023-11-30T16:35:18.933Z,82.034815
2023-11-30T16:40:15.736Z,81.856204
2023-11-30T16:45:15.867Z,81.034307
2023-11-30T16:50:16.333Z,80.842754
2023-11-30T16:55:15.950Z,79.942857
2023-11-30T17:00:16.555Z,78.930714
2023-11-30T17:05:15.744Z,78.269286
2023-11-30T17:10:15.966Z,77.628777
2023-11-30T17:15:17.614Z,77.937681
2023-11-30T17:20:15.773Z,78.658696
2023-11-30T17:25:16.410Z,79.157353
2023-11-30T17:30:23.663Z,80.284444
2023-11-30T17:35:20.452Z,80.561481
2023-11-30T17:40:17.276Z,80.029286
2023-11-30T17:45:23.744Z,78.435714
2023-11-30T17:50:16.000Z,77.946853
2023-11-30T17:55:18.208Z,77.234965
2023-11-30T18:00:17.575Z,75.982877
2023-11-30T18:05:15.880Z,76.357534
2023-11-30T18:10:16.083Z,76.074150
2023-11-30T18:15:20.601Z,75.395205
2023-11-30T18:20:21.024Z,75.419178
2023-11-30T18:25:18.115Z,73.908219
2023-11-30T18:30:16.478Z,71.813699
2023-11-30T18:35:17.803Z,70.640411
2023-11-30T18:40:16.990Z,70.366901
2023-11-30T18:45:15.920Z,69.569014
2023-11-30T18:50:16.019Z,68.825352
2023-11-30T18:55:17.409Z,68.094286
2023-11-30T19:00:16.589Z,67.203650
2023-11-30T19:05:16.529Z,67.774265
2023-11-30T19:10:17.507Z,68.418978
2023-11-30T19:15:16.448Z,69.015942
2023-11-30T19:20:16.748Z,69.830657
2023-11-30T19:25:17.398Z,72.088406
2023-11-30T19:30:17.622Z,72.355072
2023-11-30T19:35:18.370Z,74.151471
2023-11-30T19:40:16.440Z,74.541912
2023-11-30T19:45:18.755Z,74.243662
2023-11-30T19:50:17.104Z,73.063309
2023-11-30T19:55:17.013Z,72.480282
2023-11-30T20:00:16.289Z,71.731429
2023-11-30T20:05:16.953Z,70.925547
2023-11-30T20:10:16.176Z,71.085075
2023-11-30T20:15:16.737Z,72.523134
2023-11-30T20:20:15.919Z,72.957353
2023-11-30T20:25:16.693Z,73.216296
2023-11-30T20:30:16.210Z,73.601460
2023-11-30T20:35:16.234Z,73.611029
2023-11-30T20:40:16.485Z,73.961765
2023-11-30T20:45:16.079Z,73.521168
2023-11-30T20:50:16.494Z,73.692143
2023-11-30T20:55:16.266Z,72.803497
2023-11-30T21:00:15.785Z,71.695804
2023-11-30T21:05:16.209Z,70.793617
2023-11-30T21:10:16.462Z,71.540000
2023-11-30T21:15:16.225Z,71.790000
2023-11-30T21:20:16.924Z,71.201429
2023-11-30T21:25:16.618Z,71.217143
2023-11-30T21:30:16.830Z,71.213669
2023-11-30T21:35:16.731Z,70.953191
2023-11-30T21:40:15.926Z,70.315603
2023-11-30T21:45:16.172Z,70.010791
2023-11-30T21:50:16.867Z,70.197857
2023-11-30T21:55:16.259Z,69.933088
2023-11-30T22:00:17.299Z,70.537410
2023-11-30T22:05:24.103Z,69.189781
2023-11-30T22:10:16.181Z,67.425185
2023-11-30T22:15:15.842Z,68.128358
2023-11-30T22:20:17.655Z,67.796324
2023-11-30T22:25:16.184Z,67.536296
2023-11-30T22:30:16.048Z,68.425547
2023-11-30T22:35:17.445Z,69.069118
2023-11-30T22:40:16.621Z,69.565942
2023-11-30T22:45:15.837Z,70.214815
2023-11-30T22:50:16.343Z,71.875000
2023-11-30T22:55:16.285Z,72.607407
2023-11-30T23:00:16.260Z,73.825735
2023-11-30T23:05:16.294Z,74.112593
2023-11-30T23:10:15.777Z,74.513971
2023-11-30T23:15:16.643Z,75.137226
2023-11-30T23:20:16.420Z,75.524460
2023-11-30T23:25:15.933Z,75.964234
2023-11-30T23:30:16.889Z,77.016912
2023-11-30T23:35:16.010Z,78.435821
2023-11-30T23:40:16.493Z,79.527068
2023-11-30T23:45:15.940Z,80.518519
2023-11-30T23:50:15.960Z,81.111852
2023-11-30T23:55:16.247Z,81.452941
